Time;durP1;ratioP1;P1;durP2;ratioP2;P2;SDS_P1;SDS_P2;PMS_P1;PMS_P2;Temp;Humidity;BMP_temperature;BMP_pressure;BME280_temperature;BME280_humidity;BME280_pressure;Samples;Min_cycle;Max_cycle;Signal;HPM_P1;HPM_P2
2021/10/29 00:00:40;;;;;;;43.95;23.42;;;;;;;9.63;75.97;101933.27;1834923;77;21143;-57
2021/10/29 00:03:07;;;;;;;57.20;25.85;;;;;;;9.60;75.99;101932.84;1842188;76;21421;-57
2021/10/29 00:05:34;;;;;;;46.77;24.85;;;;;;;9.56;76.05;101935.13;1824510;77;21067;-65
2021/10/29 00:08:02;;;;;;;48.78;24.90;;;;;;;9.51;76.15;101937.42;1821131;77;21486;-65
2021/10/29 00:10:30;;;;;;;46.28;24.02;;;;;;;9.44;76.34;101937.50;1811820;77;21391;-56
2021/10/29 00:12:57;;;;;;;53.15;25.08;;;;;;;9.37;76.50;101933.09;1824018;77;21079;-63
2021/10/29 00:15:24;;;;;;;49.38;24.72;;;;;;;9.31;76.67;101933.17;1844156;77;21016;-56
2021/10/29 00:17:51;;;;;;;52.95;25.55;;;;;;;9.24;76.86;101932.34;1828667;77;21586;-64
2021/10/29 00:20:18;;;;;;;52.50;24.65;;;;;;;9.20;76.98;101932.41;1828331;77;21074;-64
2021/10/29 00:22:45;;;;;;;54.15;25.88;;;;;;;9.11;77.00;101926.23;1818493;77;21166;-65
2021/10/29 00:25:13;;;;;;;46.70;23.42;;;;;;;9.05;77.23;101926.30;1844584;77;21464;-64
2021/10/29 00:27:39;;;;;;;44.73;23.83;;;;;;;8.99;77.32;101919.68;1827726;76;21084;-63
2021/10/29 00:30:08;;;;;;;51.40;25.90;;;;;;;8.94;77.42;101922.83;1848622;76;21292;-64
2021/10/29 00:32:35;;;;;;;53.90;26.15;;;;;;;8.89;77.50;101915.73;1854327;76;20986;-63
2021/10/29 00:35:02;;;;;;;50.57;25.73;;;;;;;8.84;77.47;101924.27;1836267;76;21181;-63
2021/10/29 00:37:30;;;;;;;52.75;28.32;;;;;;;8.79;77.56;101920.75;1821877;76;21080;-65
2021/10/29 00:39:57;;;;;;;51.15;25.92;;;;;;;8.70;77.71;101920.38;1842368;77;21007;-64
2021/10/29 00:42:24;;;;;;;61.30;28.02;;;;;;;8.65;77.90;101913.28;1848846;77;20999;-65
2021/10/29 00:44:52;;;;;;;50.92;26.52;;;;;;;8.59;78.12;101915.55;1839743;77;20990;-64
2021/10/29 00:47:21;;;;;;;55.78;26.27;;;;;;;8.53;78.28;101911.16;1812594;77;21135;-65
2021/10/29 00:49:48;;;;;;;52.58;27.52;;;;;;;8.49;78.37;101916.03;1825565;77;21015;-57
2021/10/29 00:52:16;;;;;;;58.40;28.40;;;;;;;8.44;78.50;101915.19;1830367;77;21106;-57
2021/10/29 00:54:44;;;;;;;57.40;27.63;;;;;;;8.38;78.68;101912.10;1837083;77;20990;-56
2021/10/29 00:57:11;;;;;;;50.73;25.43;;;;;;;8.33;78.94;101907.25;1832620;77;21505;-58
2021/10/29 00:59:38;;;;;;;59.70;29.63;;;;;;;8.29;79.44;101915.76;1829852;76;21107;-63
2021/10/29 01:02:05;;;;;;;52.83;27.65;;;;;;;8.25;79.54;101909.97;1843330;77;21031;-56
2021/10/29 01:04:32;;;;;;;56.88;28.73;;;;;;;8.22;79.62;101913.12;1843036;76;21062;-57
2021/10/29 01:07:00;;;;;;;51.92;27.55;;;;;;;8.16;79.83;101914.92;1829455;76;21050;-56
2021/10/29 01:09:27;;;;;;;55.30;27.00;;;;;;;8.09;80.20;101917.66;1848635;76;21129;-56
2021/10/29 01:11:56;;;;;;;56.13;27.73;;;;;;;8.03;80.51;101911.44;1847589;76;21566;-56
2021/10/29 01:14:23;;;;;;;52.62;26.82;;;;;;;7.99;80.93;101917.70;1833992;76;21039;-57
2021/10/29 01:16:50;;;;;;;53.13;26.80;;;;;;;7.95;81.40;101907.94;1837455;76;21016;-56
2021/10/29 01:19:17;;;;;;;57.03;26.55;;;;;;;7.94;81.65;101903.49;1840123;77;21520;-64
2021/10/29 01:21:44;;;;;;;53.42;26.45;;;;;;;7.95;82.15;101916.38;1837422;77;21027;-64
2021/10/29 01:24:12;;;;;;;49.55;25.55;;;;;;;7.96;82.25;101916.38;1831730;76;20907;-65
2021/10/29 01:26:39;;;;;;;53.17;26.48;;;;;;;7.96;82.20;101913.72;1838742;76;21012;-64
2021/10/29 01:29:06;;;;;;;50.95;26.90;;;;;;;7.96;82.37;101911.05;1831879;77;21544;-64
2021/10/29 01:31:34;;;;;;;58.50;25.90;;;;;;;7.96;82.31;101913.72;1851902;76;21051;-63
2021/10/29 01:34:01;;;;;;;56.80;27.65;;;;;;;7.94;82.43;101915.51;1834294;77;21555;-65
2021/10/29 01:36:28;;;;;;;54.73;27.55;;;;;;;7.91;82.51;101914.20;1841245;76;21763;-64
2021/10/29 01:38:56;;;;;;;63.80;29.37;;;;;;;7.91;82.81;101918.63;1854188;76;21027;-64
2021/10/29 01:41:22;;;;;;;60.33;27.58;;;;;;;7.88;83.02;101911.55;1841735;77;21610;-64
2021/10/29 01:43:50;;;;;;;53.52;27.85;;;;;;;7.84;83.39;101909.76;1841780;76;21116;-64
2021/10/29 01:46:16;;;;;;;52.65;27.25;;;;;;;7.83;83.76;101914.66;1845039;76;21090;-64
2021/10/29 01:48:47;;;;;;;46.85;25.02;;;;;;;7.80;84.01;101915.58;1849441;77;21613;-64
2021/10/29 01:51:14;;;;;;;50.48;26.30;;;;;;;7.80;84.44;101918.68;1839728;76;21062;-64
2021/10/29 01:53:41;;;;;;;62.90;27.50;;;;;;;7.78;84.63;101913.80;1814921;77;21112;-63
2021/10/29 01:56:08;;;;;;;60.48;27.27;;;;;;;7.82;84.92;101914.22;1839569;76;20980;-65
2021/10/29 01:58:35;;;;;;;45.15;24.35;;;;;;;7.82;84.82;101912.88;1841764;77;21026;-62
2021/10/29 02:01:03;;;;;;;49.33;25.60;;;;;;;7.84;84.96;101917.77;1834762;76;21972;-64
2021/10/29 02:03:30;;;;;;;50.73;25.85;;;;;;;7.83;84.96;101914.23;1816772;76;21068;-64
2021/10/29 02:05:57;;;;;;;53.80;25.12;;;;;;;7.84;85.11;101921.77;1853775;76;21032;-64
2021/10/29 02:08:27;;;;;;;49.20;25.68;;;;;;;7.82;85.45;101921.80;1849271;77;21344;-63
2021/10/29 02:10:53;;;;;;;52.43;24.75;;;;;;;7.84;85.38;101920.44;1836952;77;20991;-63
2021/10/29 02:13:22;;;;;;;58.65;25.17;;;;;;;7.84;85.48;101921.77;1836257;76;21074;-63
2021/10/29 02:15:50;;;;;;;46.80;23.62;;;;;;;7.83;85.79;101918.66;1844475;76;21164;-63
2021/10/29 02:18:17;;;;;;;49.25;24.72;;;;;;;7.84;85.85;101923.11;1832936;77;21132;-64
2021/10/29 02:20:44;;;;;;;58.25;25.97;;;;;;;7.84;85.79;101929.78;1832624;76;21073;-64
2021/10/29 02:23:13;;;;;;;50.03;24.90;;;;;;;7.82;85.80;101923.56;1840558;77;21513;-64
2021/10/29 02:25:44;;;;;;;44.80;23.67;;;;;;;7.81;85.86;101924.46;1830986;76;21066;-63
2021/10/29 02:28:14;;;;;;;49.13;24.92;;;;;;;7.78;85.97;101925.81;1832956;77;20927;-64
2021/10/29 02:30:42;;;;;;;46.42;25.17;;;;;;;7.74;86.15;101928.50;1828571;77;21079;-63
2021/10/29 02:33:08;;;;;;;48.98;23.47;;;;;;;7.71;86.21;101931.19;1816794;77;20985;-64
2021/10/29 02:35:36;;;;;;;50.40;25.60;;;;;;;7.67;86.55;101930.77;1833784;77;21599;-64
2021/10/29 02:38:03;;;;;;;49.35;23.67;;;;;;;7.64;86.78;101939.22;1841520;76;21775;-63
2021/10/29 02:40:32;;;;;;;47.73;23.98;;;;;;;7.61;87.08;101933.44;1817311;76;22170;-64
2021/10/29 02:42:59;;;;;;;47.70;23.05;;;;;;;7.59;87.26;101930.80;1823677;77;21492;-64
2021/10/29 02:45:26;;;;;;;55.00;24.32;;;;;;;7.57;87.55;101939.25;1823126;77;21016;-64
2021/10/29 02:47:53;;;;;;;49.33;23.07;;;;;;;7.56;87.83;101928.14;1839112;77;21083;-64
2021/10/29 02:50:21;;;;;;;52.48;23.15;;;;;;;7.58;88.28;101932.12;1817840;77;21519;-63
2021/10/29 02:52:48;;;;;;;45.80;23.30;;;;;;;7.59;88.38;101932.56;1816916;77;21007;-63
2021/10/29 02:55:15;;;;;;;46.50;23.30;;;;;;;7.59;88.65;101927.22;1831286;77;20961;-64
2021/10/29 02:57:43;;;;;;;51.63;24.32;;;;;;;7.57;88.77;101929.91;1845356;77;21512;-64
2021/10/29 03:00:12;;;;;;;50.58;24.15;;;;;;;7.57;88.88;101933.02;1827706;77;21004;-63
2021/10/29 03:02:39;;;;;;;44.77;22.55;;;;;;;7.54;89.13;101926.35;1802990;77;21067;-64
2021/10/29 03:05:07;;;;;;;44.38;22.13;;;;;;;7.52;89.25;101930.81;1814366;77;21004;-63
2021/10/29 03:07:34;;;;;;;50.73;23.65;;;;;;;7.50;89.43;101930.80;1816145;77;21016;-64
2021/10/29 03:10:06;;;;;;;50.35;23.22;;;;;;;7.50;89.55;101934.81;1810799;77;20970;-64
2021/10/29 03:12:35;;;;;;;44.35;22.80;;;;;;;7.49;89.75;101930.83;1821156;77;21071;-63
2021/10/29 03:15:04;;;;;;;43.55;22.05;;;;;;;7.47;89.99;101935.28;1834634;77;21156;-64
2021/10/29 03:17:32;;;;;;;49.18;23.67;;;;;;;7.45;90.45;101933.51;1817362;77;21602;-64
2021/10/29 03:19:59;;;;;;;42.33;23.07;;;;;;;7.47;90.69;101940.62;1816635;77;21047;-63
2021/10/29 03:22:26;;;;;;;41.75;23.47;;;;;;;7.50;90.93;101943.28;1818526;77;21619;-64
2021/10/29 03:24:53;;;;;;;44.83;24.05;;;;;;;7.51;91.02;101942.38;1844156;77;21437;-64
2021/10/29 03:27:20;;;;;;;49.58;23.15;;;;;;;7.51;91.38;101941.92;1831695;77;21760;-65
2021/10/29 03:29:47;;;;;;;46.70;22.62;;;;;;;7.54;91.34;101942.37;1822539;77;21033;-63
2021/10/29 03:32:14;;;;;;;41.40;21.97;;;;;;;7.55;91.61;101942.37;1823629;77;21055;-63
2021/10/29 03:34:41;;;;;;;44.77;23.87;;;;;;;7.57;91.83;101945.02;1821748;77;21572;-63
2021/10/29 03:37:38;;;;;;;39.38;21.80;;;;;;;7.59;91.86;101945.91;1843589;76;20961;-64
2021/10/29 03:40:10;;;;;;;39.35;21.37;;;;;;;7.61;91.95;101946.78;1824381;77;21474;-63
2021/10/29 03:42:32;;;;;;;49.08;21.80;;;;;;;7.64;92.62;101944.13;1819883;77;21063;-68
2021/10/29 03:45:04;;;;;;;47.67;22.60;;;;;;;7.69;92.39;101950.33;1804687;77;21386;-63
2021/10/29 03:47:33;;;;;;;35.43;19.75;;;;;;;7.69;92.28;101946.33;1839740;77;21027;-63
2021/10/29 03:50:17;;;;;;;38.58;20.30;;;;;;;7.74;93.45;101949.86;1810303;77;21023;-64
2021/10/29 03:52:36;;;;;;;44.88;21.68;;;;;;;7.85;93.47;101952.48;1843982;77;21840;-63
2021/10/29 03:55:06;;;;;;;42.55;20.70;;;;;;;7.95;93.33;101946.66;1836080;77;21473;-64
2021/10/29 03:57:29;;;;;;;45.15;22.22;;;;;;;8.02;93.21;101950.20;1816055;77;21009;-64
2021/10/29 03:59:56;;;;;;;49.85;22.25;;;;;;;8.08;93.01;101952.83;1813974;77;21002;-63
2021/10/29 04:02:23;;;;;;;42.15;21.82;;;;;;;8.13;92.84;101955.48;1820816;77;21063;-64
2021/10/29 04:04:50;;;;;;;36.53;20.23;;;;;;;8.16;92.86;101960.80;1828216;77;21543;-56
2021/10/29 04:07:18;;;;;;;44.88;21.40;;;;;;;8.21;93.12;101960.32;1835986;77;21112;-57
2021/10/29 04:09:44;;;;;;;43.33;21.73;;;;;;;8.26;92.86;101962.52;1813899;77;21055;-56
2021/10/29 04:12:12;;;;;;;41.68;21.33;;;;;;;8.31;93.07;101961.16;1819797;77;21020;-64
2021/10/29 04:14:42;;;;;;;43.40;20.77;;;;;;;8.36;93.16;101962.47;1844038;77;21048;-56
2021/10/29 04:17:08;;;;;;;39.55;21.48;;;;;;;8.41;92.84;101966.00;1817593;77;21119;-58
2021/10/29 04:19:35;;;;;;;46.00;20.75;;;;;;;8.43;92.89;101965.53;1816971;77;21440;-57
2021/10/29 04:22:03;;;;;;;42.20;22.95;;;;;;;8.46;92.59;101962.84;1839384;77;21520;-57
2021/10/29 04:24:30;;;;;;;50.50;20.68;;;;;;;8.47;92.77;101965.95;1806581;77;22171;-57
2021/10/29 04:26:59;;;;;;;45.90;21.75;;;;;;;8.52;93.00;101966.86;1818962;77;21004;-57
2021/10/29 04:29:29;;;;;;;49.65;23.80;;;;;;;8.56;92.94;101967.27;1837782;77;21575;-63
2021/10/29 04:31:54;;;;;;;40.48;20.72;;;;;;;8.60;92.97;101971.70;1828406;77;21000;-64
2021/10/29 04:34:25;;;;;;;45.65;20.88;;;;;;;8.66;93.39;101971.20;1827519;77;21091;-64
2021/10/29 04:36:54;;;;;;;36.58;19.55;;;;;;;8.72;93.31;101972.05;1823767;77;21525;-57
2021/10/29 04:39:21;;;;;;;43.60;20.57;;;;;;;8.78;93.38;101979.14;1836467;77;21084;-63
2021/10/29 04:41:50;;;;;;;37.67;20.35;;;;;;;8.85;93.35;101980.86;1827066;77;21453;-63
2021/10/29 04:44:19;;;;;;;40.75;20.48;;;;;;;8.93;93.47;101983.91;1838978;77;21070;-64
2021/10/29 04:46:46;;;;;;;41.00;20.10;;;;;;;9.01;93.76;101988.77;1809896;77;21035;-64
2021/10/29 04:49:13;;;;;;;37.10;19.32;;;;;;;9.11;93.93;101993.59;1833248;77;21052;-64
2021/10/29 04:51:40;;;;;;;37.67;19.95;;;;;;;9.24;93.75;101999.25;1846887;77;21533;-65
2021/10/29 04:54:07;;;;;;;38.98;20.35;;;;;;;9.39;93.47;102003.56;1841222;77;21033;-57
2021/10/29 04:56:35;;;;;;;35.92;18.80;;;;;;;9.55;93.12;102007.42;1835008;77;21050;-66
2021/10/29 04:59:01;;;;;;;37.17;18.37;;;;;;;9.65;93.28;102012.23;1827983;77;21020;-64
2021/10/29 05:01:28;;;;;;;40.10;19.57;;;;;;;9.77;93.79;102013.89;1835269;77;21654;-64
2021/10/29 05:03:57;;;;;;;36.05;19.20;;;;;;;9.91;93.68;102027.12;1822167;77;21026;-63
2021/10/29 05:06:24;;;;;;;34.92;19.23;;;;;;;9.99;93.31;102023.45;1827443;77;21187;-64
2021/10/29 05:08:51;;;;;;;31.25;18.62;;;;;;;10.08;93.02;102020.23;1819594;77;21344;-65
2021/10/29 05:11:19;;;;;;;36.83;19.30;;;;;;;10.16;92.64;102027.72;1822953;77;21381;-64
2021/10/29 05:13:47;;;;;;;35.85;19.02;;;;;;;10.21;92.38;102023.17;1823598;77;21131;-65
2021/10/29 05:16:14;;;;;;;37.20;18.27;;;;;;;10.28;92.29;102033.37;1823102;77;21484;-65
2021/10/29 05:18:43;;;;;;;40.55;19.30;;;;;;;10.32;92.17;102029.30;1842928;77;20921;-64
2021/10/29 05:21:10;;;;;;;37.23;19.45;;;;;;;10.39;92.11;102026.52;1847324;77;20975;-64
2021/10/29 05:23:36;;;;;;;41.30;19.70;;;;;;;10.46;92.10;102031.81;1826350;77;21030;-65
2021/10/29 05:26:04;;;;;;;43.02;20.37;;;;;;;10.51;91.71;102033.11;1823221;77;21074;-64
2021/10/29 05:28:31;;;;;;;38.65;18.75;;;;;;;10.56;91.46;102037.94;1836864;77;21028;-65
2021/10/29 05:30:59;;;;;;;43.65;19.65;;;;;;;10.59;91.36;102037.89;1832006;77;21827;-64
2021/10/29 05:33:26;;;;;;;37.93;18.67;;;;;;;10.64;91.50;102044.98;1816723;77;21058;-64
2021/10/29 05:35:53;;;;;;;34.78;19.32;;;;;;;10.69;91.99;102046.69;1820656;77;21682;-65
2021/10/29 05:38:20;;;;;;;36.90;20.00;;;;;;;10.79;91.94;102050.13;1818840;76;21027;-64
2021/10/29 05:40:48;;;;;;;37.35;20.15;;;;;;;10.87;91.85;102052.22;1822104;77;21040;-65
2021/10/29 05:43:15;;;;;;;38.40;19.50;;;;;;;10.95;91.61;102049.90;1816557;77;21101;-64
2021/10/29 05:45:42;;;;;;;40.20;20.20;;;;;;;11.02;91.46;102052.91;1819994;77;21024;-65
2021/10/29 05:48:09;;;;;;;39.10;20.82;;;;;;;11.09;91.37;102049.20;1822268;77;20981;-64
2021/10/29 05:50:37;;;;;;;40.67;20.37;;;;;;;11.18;91.15;102052.19;1816205;77;20994;-65
2021/10/29 05:53:07;;;;;;;33.25;18.40;;;;;;;11.25;90.83;102057.01;1812783;77;21599;-65
2021/10/29 05:55:32;;;;;;;38.23;19.45;;;;;;;11.33;90.60;102063.13;1818713;77;21112;-65
2021/10/29 05:57:59;;;;;;;37.00;20.82;;;;;;;11.40;90.45;102056.75;1813809;77;21074;-65
2021/10/29 06:00:29;;;;;;;39.53;21.50;;;;;;;11.48;90.25;102061.09;1816125;77;21055;-65
2021/10/29 06:02:56;;;;;;;40.78;19.98;;;;;;;11.56;89.98;102055.11;1810056;77;22564;-64
2021/10/29 06:05:23;;;;;;;38.58;20.97;;;;;;;11.62;89.78;102067.11;1789476;77;21086;-63
2021/10/29 06:07:51;;;;;;;34.88;21.17;;;;;;;11.69;89.43;102062.05;1816827;77;21637;-65
2021/10/29 06:10:19;;;;;;;33.78;19.32;;;;;;;11.75;89.15;102074.02;1816212;77;21016;-64
2021/10/29 06:12:46;;;;;;;38.80;20.62;;;;;;;11.82;88.88;102076.57;1813215;77;21089;-66
2021/10/29 06:15:17;;;;;;;37.25;21.30;;;;;;;11.86;88.53;102073.80;1816760;77;21049;-65
2021/10/29 06:17:45;;;;;;;42.60;20.68;;;;;;;11.90;88.27;102077.33;1811762;77;21028;-65
2021/10/29 06:20:14;;;;;;;38.53;20.25;;;;;;;11.95;88.10;102073.22;1802273;77;20959;-64
2021/10/29 06:22:52;;;;;;;41.92;21.50;;;;;;;11.99;87.79;102079.83;1803181;77;21058;-66
2021/10/29 06:25:20;;;;;;;35.58;19.20;;;;;;;12.04;87.72;102079.78;1806624;77;21007;-66
2021/10/29 06:30:37;;;;;;;47.05;20.17;;;;;;;12.13;87.62;102079.58;1824356;77;21122;-65
2021/10/29 06:33:05;;;;;;;35.08;19.40;;;;;;;12.19;87.42;102081.27;1824089;77;21659;-64
2021/10/29 06:35:33;;;;;;;36.42;19.42;;;;;;;12.25;87.34;102082.47;1815713;77;21431;-65
2021/10/29 06:38:00;;;;;;;31.95;19.15;;;;;;;12.34;87.32;102084.56;1832545;77;21047;-65
2021/10/29 06:40:28;;;;;;;37.20;19.17;;;;;;;12.41;87.11;102095.61;1823266;77;20998;-64
2021/10/29 06:43:00;;;;;;;33.10;18.60;;;;;;;12.49;86.86;102103.52;1820812;76;22130;-65
2021/10/29 06:48:03;;;;;;;32.50;18.60;;;;;;;12.57;86.22;102101.09;1826082;77;21100;-65
2021/10/29 07:01:38;;;;;;;;;;;;;;;12.85;85.17;102093.73;1829208;77;21050;-64
2021/10/29 07:04:19;;;;;;;36.33;18.92;;;;;;;12.98;84.90;102100.20;1826690;76;20198;-63
2021/10/29 07:12:16;;;;;;;34.45;20.00;;;;;;;13.23;83.69;102106.34;1806816;77;21513;-63
2021/10/29 07:42:05;;;;;;;;;;;;;;;14.04;80.32;102106.05;1815228;77;21654;-64
2021/10/29 07:44:32;;;;;;;32.35;20.17;;;;;;;14.01;80.16;102115.55;1782846;78;20218;-63
2021/10/29 07:46:59;;;;;;;42.65;20.92;;;;;;;13.97;80.32;102114.35;1810222;77;21526;-62
2021/10/29 07:49:28;;;;;;;36.77;20.65;;;;;;;13.94;80.62;102120.70;1814870;77;21086;-64
2021/10/29 07:51:57;;;;;;;34.45;21.07;;;;;;;13.89;80.88;102118.60;1818411;77;22185;-65
2021/10/29 07:54:25;;;;;;;37.85;20.97;;;;;;;13.82;81.33;102110.27;1821242;77;21117;-64
2021/10/29 07:56:52;;;;;;;36.77;20.20;;;;;;;13.80;81.96;102114.79;1784010;78;21077;-66
2021/10/29 07:59:23;;;;;;;47.70;22.07;;;;;;;13.82;82.21;102118.36;1782354;78;21074;-57
2021/10/29 08:01:50;;;;;;;41.35;22.07;;;;;;;13.81;82.43;102115.20;1810183;77;21074;-58
2021/10/29 08:04:21;;;;;;;35.50;20.80;;;;;;;13.83;82.78;102117.43;1812629;77;21136;-60
2021/10/29 08:06:51;;;;;;;32.80;21.33;;;;;;;13.85;82.82;102124.53;1813370;77;20941;-57
2021/10/29 08:09:19;;;;;;;33.02;21.15;;;;;;;13.79;83.30;102130.09;1811487;77;20926;-59
2021/10/29 08:11:47;;;;;;;38.02;23.45;;;;;;;13.78;83.98;102119.34;1810374;77;21306;-58
2021/10/29 08:14:15;;;;;;;31.17;21.40;;;;;;;13.80;83.39;102133.20;1812701;77;21411;-58
2021/10/29 08:16:42;;;;;;;34.13;21.60;;;;;;;13.85;83.12;102129.92;1809536;77;21120;-59
2021/10/29 08:19:09;;;;;;;39.65;21.80;;;;;;;13.95;82.68;102127.86;1811288;77;21084;-57
2021/10/29 08:21:37;;;;;;;38.88;22.17;;;;;;;14.11;82.28;102124.27;1815452;77;21745;-58
2021/10/29 08:24:04;;;;;;;34.15;21.37;;;;;;;14.26;81.45;102131.07;1807597;77;21054;-59
2021/10/29 08:26:32;;;;;;;36.35;21.75;;;;;;;14.36;80.84;102128.09;1814186;77;21075;-58
2021/10/29 08:28:59;;;;;;;41.10;22.87;;;;;;;14.48;80.48;102138.55;1808776;77;21136;-59
2021/10/29 08:31:26;;;;;;;39.65;22.52;;;;;;;14.56;79.89;102146.39;1804689;77;21073;-59
2021/10/29 08:33:54;;;;;;;35.13;21.93;;;;;;;14.61;79.27;102144.46;1807555;77;21094;-58
2021/10/29 08:36:21;;;;;;;42.00;22.35;;;;;;;14.63;79.26;102140.35;1809485;77;21407;-59
2021/10/29 08:38:49;;;;;;;35.30;22.52;;;;;;;14.65;79.43;102133.09;1800883;77;21074;-57
2021/10/29 08:41:16;;;;;;;39.10;23.65;;;;;;;14.68;79.58;102141.09;1802133;77;22696;-59
2021/10/29 08:43:43;;;;;;;42.90;22.80;;;;;;;14.71;79.00;102149.16;1803496;77;21119;-58
2021/10/29 08:46:10;;;;;;;37.20;22.37;;;;;;;14.75;78.75;102137.33;1804720;77;21091;-58
2021/10/29 08:48:38;;;;;;;43.85;23.42;;;;;;;14.87;78.90;102141.47;1805410;77;21032;-57
2021/10/29 08:51:05;;;;;;;39.30;24.30;;;;;;;14.97;78.35;102136.66;1749797;77;21078;-57
2021/10/29 08:53:32;;;;;;;37.13;21.62;;;;;;;14.99;77.73;102137.02;1804746;77;21130;-57
2021/10/29 08:56:03;;;;;;;35.65;22.30;;;;;;;15.01;77.89;102142.37;1778414;77;21535;-58
2021/10/29 08:58:35;;;;;;;36.35;22.27;;;;;;;15.08;77.53;102137.67;1805240;77;21585;-57
2021/10/29 09:01:07;;;;;;;35.88;22.02;;;;;;;15.13;77.31;102140.62;1806856;77;21518;-57
2021/10/29 09:03:42;;;;;;;37.35;22.98;;;;;;;15.13;76.89;102143.32;1805656;77;21096;-55
2021/10/29 09:08:46;;;;;;;34.67;23.35;;;;;;;15.15;76.65;102148.69;1753968;77;21670;-58
2021/10/29 09:31:25;;;;;;;40.17;23.65;;;;;;;15.28;76.41;102144.67;1804827;77;21049;-56
2021/10/29 09:34:01;;;;;;;;;;;;;;;15.32;76.07;102133.27;1808047;77;21540;-62
2021/10/29 09:36:32;;;;;;;41.53;22.33;;;;;;;15.33;76.20;102141.80;1798698;77;20163;-62
2021/10/29 09:39:17;;;;;;;36.95;22.55;;;;;;;15.27;76.31;102134.80;1801245;77;21299;-62
2021/10/29 09:42:09;;;;;;;38.92;23.75;;;;;;;15.14;76.28;102134.77;1805758;77;21065;-63
2021/10/29 09:44:43;;;;;;;36.28;22.55;;;;;;;14.99;76.70;102138.84;1802266;77;21586;-63
2021/10/29 09:47:11;;;;;;;37.00;21.80;;;;;;;14.96;77.06;102140.30;1804666;77;21741;-64
2021/10/29 09:49:52;;;;;;;34.98;21.75;;;;;;;14.94;77.41;102151.14;1802918;77;21019;-62
2021/10/29 09:55:48;;;;;;;39.08;22.32;;;;;;;14.88;77.45;102143.23;1802389;77;21066;-63
2021/10/29 09:57:13;;;;;;;45.85;23.50;;;;;;;14.82;78.01;102141.59;1790931;77;21126;-63
2021/10/29 09:59:41;;;;;;;37.60;23.52;;;;;;;14.79;78.28;102152.50;1798918;77;21724;-62
2021/10/29 10:02:08;;;;;;;36.40;22.13;;;;;;;14.78;78.62;102141.28;1805472;77;21222;-63
2021/10/29 10:04:37;;;;;;;37.38;22.85;;;;;;;14.83;78.76;102135.27;1800309;77;21114;-62
2021/10/29 10:07:04;;;;;;;37.45;21.40;;;;;;;14.87;78.45;102137.41;1775978;78;21364;-64
2021/10/29 10:09:32;;;;;;;37.33;21.15;;;;;;;14.92;78.30;102138.59;1810231;77;21121;-61
2021/10/29 10:11:59;;;;;;;40.88;23.47;;;;;;;14.90;78.33;102134.13;1805908;77;21886;-62
2021/10/29 10:14:27;;;;;;;36.73;22.17;;;;;;;14.87;78.56;102139.63;1779666;77;21460;-64
2021/10/29 10:16:59;;;;;;;36.73;21.48;;;;;;;14.90;78.59;102150.33;1776159;77;21062;-63
2021/10/29 10:19:26;;;;;;;37.23;22.58;;;;;;;14.90;78.20;102131.43;1805048;77;21614;-62
2021/10/29 10:21:56;;;;;;;35.95;22.98;;;;;;;14.94;78.29;102140.81;1775238;77;20975;-62
2021/10/29 10:24:31;;;;;;;32.90;20.68;;;;;;;14.92;78.19;102126.00;1803284;77;21463;-64
2021/10/29 10:41:03;;;;;;;33.35;22.50;;;;;;;14.86;78.49;102153.20;1810360;77;21031;-62
2021/10/29 10:54:19;;;;;;;34.58;23.32;;;;;;;14.77;79.69;102142.66;1803641;77;21510;-63
2021/10/29 10:57:08;;;;;;;42.35;24.02;;;;;;;14.81;79.40;102133.08;1803626;77;21074;-62
2021/10/29 10:59:51;;;;;;;38.02;22.93;;;;;;;14.77;79.41;102131.41;1801585;77;21507;-62
2021/10/29 11:05:20;;;;;;;37.73;23.10;;;;;;;14.74;79.72;102133.73;1799467;77;21055;-56
2021/10/29 11:10:20;;;;;;;33.00;20.72;;;;;;;14.75;79.57;102127.88;1797403;77;21039;-62
2021/10/29 11:12:53;;;;;;;37.48;23.20;;;;;;;14.81;79.23;102126.78;1805065;77;21779;-62
2021/10/29 11:15:25;;;;;;;38.13;22.87;;;;;;;14.85;79.06;102123.95;1801525;77;21031;-58
2021/10/29 11:18:04;;;;;;;37.65;21.75;;;;;;;14.89;78.97;102117.52;1805240;77;21125;-58
2021/10/29 11:20:49;;;;;;;36.63;23.27;;;;;;;14.97;78.85;102119.98;1806550;77;21113;-57
2021/10/29 11:23:36;;;;;;;31.93;21.65;;;;;;;14.98;78.70;102119.52;1802672;77;21071;-56
2021/10/29 11:26:05;;;;;;;36.73;23.30;;;;;;;15.00;78.71;102128.45;1808437;77;21691;-58
2021/10/29 11:28:46;;;;;;;35.35;23.05;;;;;;;15.00;78.44;102121.23;1807833;77;21811;-58
2021/10/29 11:31:16;;;;;;;39.10;23.02;;;;;;;14.95;78.82;102120.98;1777659;79;21126;-62
2021/10/29 11:33:49;;;;;;;37.00;23.73;;;;;;;14.91;79.31;102125.58;1800000;77;21430;-57
2021/10/29 11:36:22;;;;;;;35.40;22.60;;;;;;;14.89;78.82;102127.45;1805856;77;20928;-58
2021/10/29 11:38:50;;;;;;;40.95;22.40;;;;;;;14.83;79.03;102139.31;1810609;77;20963;-57
2021/10/29 11:41:21;;;;;;;39.78;23.45;;;;;;;14.80;79.66;102131.31;1808194;77;20979;-63
2021/10/29 11:43:49;;;;;;;36.75;22.13;;;;;;;14.76;79.76;102130.99;1803060;77;21413;-57
2021/10/29 11:46:17;;;;;;;35.03;21.50;;;;;;;14.74;79.73;102126.11;1806413;77;20881;-63
2021/10/29 11:48:53;;;;;;;44.27;23.47;;;;;;;14.72;79.90;102132.89;1807919;77;20983;-63
2021/10/29 11:51:24;;;;;;;31.85;20.95;;;;;;;14.77;79.84;102135.46;1775626;77;21042;-56
2021/10/29 11:54:12;;;;;;;34.60;21.82;;;;;;;14.81;79.35;102130.38;1735003;80;21091;-62
2021/10/29 11:56:36;;;;;;;31.57;20.17;;;;;;;14.82;79.25;102138.90;1761837;79;21132;-58
2021/10/29 12:05:50;;;;;;;31.65;19.87;;;;;;;14.84;79.46;102141.56;1769945;79;20986;-56
2021/10/29 12:07:30;;;;;;;34.38;20.15;;;;;;;14.88;78.62;102134.65;1754315;79;21570;-64
2021/10/29 12:10:04;;;;;;;28.65;19.40;;;;;;;14.87;78.81;102127.48;1743536;79;21106;-62
2021/10/29 12:12:57;;;;;;;32.45;20.25;;;;;;;14.86;79.04;102136.52;1746904;79;21116;-57
2021/10/29 12:15:29;;;;;;;32.83;20.23;;;;;;;14.88;78.46;102133.30;1751519;79;20901;-62
2021/10/29 12:18:06;;;;;;;31.75;19.92;;;;;;;14.87;78.38;102135.58;1749335;79;20949;-63
2021/10/29 12:20:40;;;;;;;32.90;21.10;;;;;;;14.90;78.31;102134.13;1749957;79;21672;-63
2021/10/29 12:23:14;;;;;;;27.27;16.35;;;;;;;14.93;78.17;102122.36;1745417;79;21101;-62
2021/10/29 12:30:53;;;;;;;23.05;15.03;;;;;;;15.13;75.57;102127.12;1752497;79;21084;-62
2021/10/29 13:01:58;;;;;;;25.97;16.02;;;;;;;15.37;75.30;102112.41;1751770;79;21082;-55
2021/10/29 13:04:40;;;;;;;25.23;15.28;;;;;;;15.38;75.32;102103.37;1749113;79;21459;-57
2021/10/29 13:07:06;;;;;;;25.85;16.02;;;;;;;15.42;75.13;102109.08;1750686;79;22434;-64
2021/10/29 13:09:37;;;;;;;25.65;15.25;;;;;;;15.41;75.12;102103.26;1749122;79;21094;-64
2021/10/29 13:12:22;;;;;;;25.60;14.47;;;;;;;15.41;74.76;102103.26;1747514;79;20999;-63
2021/10/29 13:14:50;;;;;;;23.22;14.98;;;;;;;15.43;74.66;102102.73;1748777;79;20937;-57
2021/10/29 13:17:19;;;;;;;22.67;15.00;;;;;;;15.45;74.51;102099.51;1744764;79;21215;-58
2021/10/29 13:20:05;;;;;;;22.55;13.72;;;;;;;15.47;74.47;102098.09;1741507;79;21060;-63
2021/10/29 13:25:06;;;;;;;22.60;14.80;;;;;;;15.55;74.17;102095.13;1750101;79;21667;-62
2021/10/29 13:38:41;;;;;;;28.02;17.82;;;;;;;15.30;76.34;102104.08;1746697;79;21092;-57
2021/10/29 13:54:48;;;;;;;27.20;15.83;;;;;;;15.07;77.54;102097.61;1749456;79;21075;-56
2021/10/29 13:57:27;;;;;;;26.90;16.37;;;;;;;15.05;77.59;102099.48;1749869;79;21121;-56
2021/10/29 13:59:52;;;;;;;27.37;15.55;;;;;;;15.10;77.46;102101.56;1739714;79;21056;-58
2021/10/29 14:24:33;;;;;;;23.95;13.90;;;;;;;15.03;76.42;102095.95;1749519;79;21840;-58
2021/10/29 14:34:52;;;;;;;23.62;14.65;;;;;;;14.84;77.04;102100.58;1781576;77;21068;-55
2021/10/29 14:37:42;;;;;;;25.88;14.35;;;;;;;14.88;77.06;102092.80;1808680;77;21570;-56
2021/10/29 14:40:15;;;;;;;;;;;;;;;14.93;76.89;102094.48;1803422;77;21129;-63
2021/10/29 14:42:42;;;;;;;21.17;13.43;;;;;;;14.99;76.55;102095.64;1760558;79;20225;-56
2021/10/29 14:45:15;;;;;;;21.40;12.58;;;;;;;15.02;76.10;102095.53;1748210;79;21504;-64